Charles Burton — WDF2455 — position and weather

sailwx.info

Track history (hours):
 
Tides and Currents Weather Stations Pressure Air Temp Water Temp Dewpoint Dewpoint Depression Visibility Wind Speed Wind Dir Waves Ship Positions

Charles Burton

Owner: Vane Line Bunkering, Inc., Philadelphia, PA. More information available from US FCC via Universal Licensing System and Coast Guard Vessel Documentation Center.

Last reported at 2018-Jan-20 15:00 UTC. Time now 2018-Jan-20 15:27 UTC.
Position N 39°49' W 075°25'.

Length 32 m; draft 3 m.

Type: Towing. MMSI: 367428270.

Date/timePositionNaut miles runAvg speedWind from/ knotsBaromVisibWave heightAir tempDewpointWater temp
2018-Jan-20 15:00N 39°49' W 075°25'0 0.0
2018-Jan-20 14:30N 39°49' W 075°25'0 0.0
2018-Jan-20 14:00N 39°49' W 075°25'1 1.3
2018-Jan-20 13:30N 39°49' W 075°24'1 1.9
2018-Jan-20 13:00N 39°49' W 075°23'3 6.0
2018-Jan-20 12:30N 39°51' W 075°20'3 5.4
2018-Jan-20 12:00N 39°51' W 075°16'2 4.1
2018-Jan-20 11:30N 39°51' W 075°14'1 1.0
2018-Jan-20 11:01N 39°52' W 075°14'2 4.2
2018-Jan-20 10:30N 39°54' W 075°12'1 2.2
2018-Jan-20 10:01N 39°53' W 075°12'3 5.1
2018-Jan-20 09:30N 39°51' W 075°15'5 9.2
2018-Jan-20 09:01N 39°50' W 075°21'4 8.9
2018-Jan-20 08:30N 39°48' W 075°26'5 9.2
2018-Jan-20 07:59N 39°44' W 075°30'2 3.3
2018-Jan-20 07:31N 39°43' W 075°31'0 0.0
2018-Jan-20 07:00N 39°43' W 075°31'0 0.0
2018-Jan-20 06:31N 39°43' W 075°31'5 7.5
2018-Jan-20 05:51N 39°47' W 075°27'3 8.3
2018-Jan-20 05:30N 39°49' W 075°24'4 9.0
2018-Jan-20 05:00N 39°51' W 075°19'510.2
2018-Jan-20 04:31N 39°52' W 075°13'1 3.0
2018-Jan-20 04:01N 39°54' W 075°12'1 2.6
2018-Jan-20 03:31N 39°52' W 075°12'5 9.2
2018-Jan-20 03:00N 39°51' W 075°18'4 8.4
2018-Jan-20 02:30N 39°49' W 075°23'4 8.3
2018-Jan-20 02:00N 39°47' W 075°28'4 8.9
2018-Jan-20 01:30N 39°43' W 075°30'1 1.7
2018-Jan-20 01:00N 39°43' W 075°31'0 0.0
2018-Jan-20 00:30N 39°43' W 075°31'0 0.0
2018-Jan-20 00:01N 39°43' W 075°31'0 0.0
2018-Jan-19 23:30N 39°43' W 075°31'0 0.0
2018-Jan-19 23:00N 39°43' W 075°31'0 0.0
2018-Jan-19 22:30N 39°43' W 075°31'0 0.0
2018-Jan-19 22:00N 39°43' W 075°31'1 1.2
2018-Jan-19 21:31N 39°43' W 075°31'0 0.0
2018-Jan-19 21:00N 39°43' W 075°31'1 1.3
2018-Jan-19 20:30N 39°43' W 075°30'5 9.6
2018-Jan-19 20:00N 39°47' W 075°27'4 9.0
2018-Jan-19 19:30N 39°50' W 075°22'4 8.0
2018-Jan-19 19:01N 39°51' W 075°17'4 8.1
2018-Jan-19 18:30N 39°53' W 075°12'1 1.9
2018-Jan-19 18:00N 39°53' W 075°12'3 5.4
2018-Jan-19 17:30N 39°51' W 075°14'0 0.3
2018-Jan-19 17:00N 39°51' W 075°14'2 5.0
2018-Jan-19 16:31N 39°54' W 075°12'0 0.2
2018-Jan-19 16:01N 39°54' W 075°12'3 5.8
2018-Jan-19 15:30N 39°53' W 075°09'4 7.9
2018-Jan-19 15:01N 39°57' W 075°08'3 6.9
2018-Jan-19 14:31N 39°59' W 075°04'3 5.8
2018-Jan-19 14:00N 39°58' W 075°08'4 8.1
2018-Jan-19 13:31N 39°54' W 075°08'3 6.5
2018-Jan-19 13:00N 39°54' W 075°12'1 1.4
2018-Jan-19 12:30N 39°54' W 075°12'0 0.0
2018-Jan-19 12:01N 39°54' W 075°12'0 0.0
2018-Jan-19 11:31N 39°54' W 075°12'0 0.0
2018-Jan-19 11:00N 39°54' W 075°12'0 0.0
2018-Jan-19 10:30N 39°54' W 075°12'0 0.0
2018-Jan-19 10:00N 39°54' W 075°12'0 0.0
2018-Jan-19 09:30N 39°54' W 075°12'0 0.3
2018-Jan-19 09:01N 39°53' W 075°12'2 4.4
2018-Jan-19 08:30N 39°53' W 075°09'2 4.4
2018-Jan-19 08:00N 39°55' W 075°08'0 0.0
2018-Jan-19 07:30N 39°55' W 075°08'0 0.0
2018-Jan-19 07:01N 39°55' W 075°08'0 0.0
2018-Jan-19 06:30N 39°55' W 075°08'0 0.0
2018-Jan-19 06:01N 39°55' W 075°08'0 0.0
2018-Jan-19 05:31N 39°55' W 075°08'0 0.1
2018-Jan-19 05:01N 39°55' W 075°08'3 6.3
2018-Jan-19 04:31N 39°53' W 075°11'1 1.8
2018-Jan-19 04:00N 39°53' W 075°12'1 1.0
2018-Jan-19 03:30N 39°53' W 075°12'3 6.9
2018-Jan-19 03:00N 39°55' W 075°08'4 8.4
2018-Jan-19 02:30N 39°59' W 075°05'1 1.7
2018-Jan-19 02:00N 39°59' W 075°04'0 0.3
2018-Jan-19 01:30N 39°59' W 075°04'3 6.6
2018-Jan-19 01:00N 39°57' W 075°08'4 7.3
2018-Jan-19 00:30N 39°53' W 075°08'3 5.5
2018-Jan-19 00:00N 39°53' W 075°12'1 1.3
2018-Jan-18 23:30N 39°54' W 075°12'0 0.1
2018-Jan-18 23:00N 39°54' W 075°12'0 0.0
2018-Jan-18 22:30N 39°54' W 075°12'0 0.0
2018-Jan-18 22:00N 39°54' W 075°12'0 0.0
2018-Jan-18 21:30N 39°54' W 075°12'0 0.0
2018-Jan-18 21:00N 39°54' W 075°12'0 0.0
2018-Jan-18 20:07N 39°54' W 075°12'0 0.1
2018-Jan-18 20:00N 39°54' W 075°12'0 0.0
2018-Jan-18 19:31N 39°54' W 075°12'2 3.5
2018-Jan-18 19:01N 39°52' W 075°13'1 1.8
2018-Jan-18 18:30N 39°51' W 075°14'0 0.6
2018-Jan-18 18:01N 39°52' W 075°14'2 4.7
2018-Jan-18 17:30N 39°54' W 075°12'0 0.6
2018-Jan-18 17:01N 39°54' W 075°12'0 0.2
2018-Jan-18 16:31N 39°54' W 075°12'0 0.0
2018-Jan-18 16:01N 39°54' W 075°12'1 1.5
2018-Jan-18 15:30N 39°53' W 075°12'5 9.8
2018-Jan-18 15:01N 39°51' W 075°17'510.4
2018-Jan-18 14:31N 39°49' W 075°24'0 0.8
2018-Jan-18 14:00N 39°48' W 075°24'0 0.3
2018-Jan-18 13:30N 39°48' W 075°24'0 0.0
2018-Jan-18 13:00N 39°48' W 075°24'0 0.0
2018-Jan-18 12:30N 39°48' W 075°24'0 0.0
2018-Jan-18 12:01N 39°48' W 075°24'0 0.0
2018-Jan-18 11:30N 39°48' W 075°24'0 0.0
2018-Jan-18 11:00N 39°48' W 075°24'0 0.0
2018-Jan-18 10:30N 39°48' W 075°24'0 0.0
2018-Jan-18 10:00N 39°48' W 075°24'0 0.0
2018-Jan-18 09:30N 39°48' W 075°24'0 0.0
2018-Jan-18 09:00N 39°48' W 075°24'0 0.0
2018-Jan-18 08:30N 39°48' W 075°24'0 0.1
2018-Jan-18 08:01N 39°48' W 075°24'0 0.1
2018-Jan-18 07:30N 39°48' W 075°24'0 0.1
2018-Jan-18 07:01N 39°49' W 075°24'1 1.7
2018-Jan-18 06:30N 39°49' W 075°23'4 7.0
2018-Jan-18 06:00N 39°51' W 075°19'4 8.0
2018-Jan-18 05:31N 39°51' W 075°14'3 5.4
2018-Jan-18 05:01N 39°54' W 075°13'1 1.2
2018-Jan-18 04:31N 39°55' W 075°13'0 0.0
2018-Jan-18 04:01N 39°55' W 075°13'0 0.0
2018-Jan-18 03:30N 39°55' W 075°13'0 0.0
2018-Jan-18 03:00N 39°55' W 075°13'0 0.0
2018-Jan-18 02:31N 39°55' W 075°13'0 0.0
2018-Jan-18 02:00N 39°55' W 075°13'0 0.0
2018-Jan-18 01:31N 39°55' W 075°13'0 0.0
2018-Jan-18 01:01N 39°55' W 075°13'0 0.0
2018-Jan-18 00:00N 39°55' W 075°13'0 0.0
2018-Jan-17 23:58N 39°55' W 075°13'  
2018-Jan-12 14:59N 40°37' W 074°12'3 6.0
2018-Jan-12 14:29N 40°39' W 074°09'3 7.2
2018-Jan-12 14:01N 40°39' W 074°04'3 5.3
2018-Jan-12 13:31N 40°40' W 074°01'0 1.0
2018-Jan-12 13:00N 40°40' W 074°00'0 0.1
2018-Jan-12 12:30N 40°40' W 074°00'1 2.9
2018-Jan-12 12:01N 40°39' W 074°02'2 3.9
2018-Jan-12 11:31N 40°40' W 074°04'0 0.0
2018-Jan-12 11:00N 40°40' W 074°04'0 0.0
2018-Jan-12 10:31N 40°40' W 074°04'0 0.0
2018-Jan-12 10:01N 40°40' W 074°04'0 0.0
2018-Jan-12 09:31N 40°40' W 074°04'0 0.0
2018-Jan-12 09:01N 40°40' W 074°04'0 0.0
2018-Jan-12 08:31N 40°40' W 074°04'0 0.0
2018-Jan-12 08:01N 40°40' W 074°04'0 0.0
2018-Jan-12 07:31N 40°40' W 074°04'0 0.0
2018-Jan-12 07:00N 40°40' W 074°04'0 0.0
2018-Jan-12 06:30N 40°40' W 074°04'0 0.0
2018-Jan-12 06:00N 40°40' W 074°04'0 0.0
2018-Jan-12 05:30N 40°40' W 074°04'0 0.0
2018-Jan-12 05:00N 40°40' W 074°04'1 2.2
2018-Jan-12 04:31N 40°40' W 074°03'0 0.2
2018-Jan-12 04:00N 40°40' W 074°03'2 4.1
2018-Jan-12 03:31N 40°39' W 074°05'1 2.3
2018-Jan-12 03:00N 40°39' W 074°07'0 0.0
2018-Jan-12 02:30N 40°39' W 074°07'0 0.0
2018-Jan-12 01:03N 40°39' W 074°07'1 7.0
2018-Jan-12 00:58N 40°39' W 074°06'1 1.5
2018-Jan-12 00:30N 40°39' W 074°05'1 1.5
2018-Jan-11 23:40N 40°39' W 074°07'1 6.0
2018-Jan-11 23:30N 40°39' W 074°05'3 5.2
2018-Jan-11 23:00N 40°40' W 074°02'1 2.9
2018-Jan-11 22:30N 40°41' W 074°01'0 0.0
2018-Jan-11 22:01N 40°41' W 074°01'3 5.1
2018-Jan-11 21:30N 40°40' W 074°03'2 4.3
2018-Jan-11 21:00N 40°39' W 074°06'3 1.2
2018-Jan-11 18:32N 40°39' W 074°10'1 5.5
2018-Jan-11 18:22N 40°39' W 074°09'2 6.5
2018-Jan-11 18:00N 40°39' W 074°06'3 6.5
2018-Jan-11 17:30N 40°39' W 074°01'1 1.3
2018-Jan-11 17:00N 40°40' W 074°01'0 0.7
2018-Jan-11 16:30N 40°40' W 074°00'0 0.0
2018-Jan-11 16:00N 40°40' W 074°00'0 0.0
2018-Jan-11 15:30N 40°40' W 074°00'0 0.0
2018-Jan-11 15:00N 40°40' W 074°00'0 0.0
2018-Jan-11 14:30N 40°40' W 074°00'0 0.0
2018-Jan-11 13:57N 40°40' W 074°00'0 0.1
2018-Jan-11 13:30N 40°40' W 074°01'0 0.1
2018-Jan-11 13:00N 40°40' W 074°00'0 0.0
2018-Jan-11 12:30N 40°40' W 074°00'0 0.0
2018-Jan-11 12:00N 40°40' W 074°00'0 0.0
2018-Jan-11 11:30N 40°40' W 074°00'0 0.0
2018-Jan-11 11:00N 40°40' W 074°00'0 0.0
2018-Jan-11 10:30N 40°40' W 074°00'0 0.0
2018-Jan-11 09:57N 40°40' W 074°00'0 0.0
2018-Jan-11 09:30N 40°40' W 074°00'0 0.0
2018-Jan-11 08:57N 40°40' W 074°00'0 0.0
2018-Jan-11 08:30N 40°40' W 074°00'0 0.0
2018-Jan-11 08:00N 40°40' W 074°00'0 0.0
2018-Jan-11 07:30N 40°40' W 074°00'0 0.0
2018-Jan-11 07:00N 40°40' W 074°00'0 0.0
2018-Jan-11 06:30N 40°40' W 074°00'0 0.5
2018-Jan-11 06:01N 40°40' W 074°00'1 1.6
2018-Jan-11 05:31N 40°40' W 074°01'2 3.2
2018-Jan-11 05:01N 40°41' W 074°00'2 3.4
2018-Jan-11 04:31N 40°40' W 074°01'0 1.0
2018-Jan-11 04:01N 40°40' W 074°01'3 5.0
2018-Jan-11 03:30N 40°40' W 074°04'1 1.4
2018-Jan-11 02:57N 40°40' W 074°05'0 0.4
2018-Jan-11 02:31N 40°40' W 074°05'0 0.0
2018-Jan-11 02:01N 40°40' W 074°05'0 0.0
2018-Jan-11 01:31N 40°40' W 074°05'0 0.0
2018-Jan-11 01:01N 40°40' W 074°05'0 0.0
2018-Jan-11 00:31N 40°40' W 074°05'0 0.0
2018-Jan-11 00:01N 40°40' W 074°05'0 0.0
2018-Jan-10 23:31N 40°40' W 074°05'0 0.0
2018-Jan-10 23:01N 40°40' W 074°05'0 0.0
2018-Jan-10 22:30N 40°40' W 074°05'0 0.0
2018-Jan-10 22:01N 40°40' W 074°05'2 3.6
2018-Jan-10 21:31N 40°39' W 074°03'1 1.5
2018-Jan-10 21:01N 40°38' W 074°03'2 3.8
2018-Jan-10 20:30N 40°40' W 074°01'1 1.1
2018-Jan-10 20:01N 40°40' W 074°00'0 0.0
2018-Jan-10 19:31N 40°40' W 074°00'0 0.0
2018-Jan-10 19:01N 40°40' W 074°00'0 0.0
2018-Jan-10 18:31N 40°40' W 074°00'0 0.1
2018-Jan-10 18:01N 40°40' W 074°00'0 0.3
2018-Jan-10 17:31N 40°40' W 074°01'0 0.4
2018-Jan-10 17:00N 40°40' W 074°00'0 0.1
2018-Jan-10 16:31N 40°40' W 074°00'0 0.0
2018-Jan-10 16:00N 40°40' W 074°00'0 0.0
2018-Jan-10 15:30N 40°40' W 074°00'0 0.0
2018-Jan-10 15:01N 40°40' W 074°00'  
Track history (hours):
 
Tides and Currents Weather Stations Pressure Air Temp Water Temp Dewpoint Dewpoint Depression Visibility Wind Speed Wind Dir Waves Ship Positions

Charles Burton

Owner: Vane Line Bunkering, Inc., Philadelphia, PA. More information available from US FCC via Universal Licensing System and Coast Guard Vessel Documentation Center.

Last reported at 2018-Jan-20 15:00 UTC. Time now 2018-Jan-20 15:27 UTC.
Position N 39°49' W 075°25'.

Length 32 m; draft 3 m.

Type: Towing. MMSI: 367428270.

Date/timePositionNaut miles runAvg speedWind from/ knotsBaromVisibWave heightAir tempDewpointWater temp
2018-Jan-20 15:00N 39°49' W 075°25'0 0.0
2018-Jan-20 14:30N 39°49' W 075°25'0 0.0
2018-Jan-20 14:00N 39°49' W 075°25'1 1.3
2018-Jan-20 13:30N 39°49' W 075°24'1 1.9
2018-Jan-20 13:00N 39°49' W 075°23'3 6.0
2018-Jan-20 12:30N 39°51' W 075°20'3 5.4
2018-Jan-20 12:00N 39°51' W 075°16'2 4.1
2018-Jan-20 11:30N 39°51' W 075°14'1 1.0
2018-Jan-20 11:01N 39°52' W 075°14'2 4.2
2018-Jan-20 10:30N 39°54' W 075°12'1 2.2
2018-Jan-20 10:01N 39°53' W 075°12'3 5.1
2018-Jan-20 09:30N 39°51' W 075°15'5 9.2
2018-Jan-20 09:01N 39°50' W 075°21'4 8.9
2018-Jan-20 08:30N 39°48' W 075°26'5 9.2
2018-Jan-20 07:59N 39°44' W 075°30'2 3.3
2018-Jan-20 07:31N 39°43' W 075°31'0 0.0
2018-Jan-20 07:00N 39°43' W 075°31'0 0.0
2018-Jan-20 06:31N 39°43' W 075°31'5 7.5
2018-Jan-20 05:51N 39°47' W 075°27'3 8.3
2018-Jan-20 05:30N 39°49' W 075°24'4 9.0
2018-Jan-20 05:00N 39°51' W 075°19'510.2
2018-Jan-20 04:31N 39°52' W 075°13'1 3.0
2018-Jan-20 04:01N 39°54' W 075°12'1 2.6
2018-Jan-20 03:31N 39°52' W 075°12'5 9.2
2018-Jan-20 03:00N 39°51' W 075°18'4 8.4
2018-Jan-20 02:30N 39°49' W 075°23'4 8.3
2018-Jan-20 02:00N 39°47' W 075°28'4 8.9
2018-Jan-20 01:30N 39°43' W 075°30'1 1.7
2018-Jan-20 01:00N 39°43' W 075°31'0 0.0
2018-Jan-20 00:30N 39°43' W 075°31'0 0.0
2018-Jan-20 00:01N 39°43' W 075°31'0 0.0
2018-Jan-19 23:30N 39°43' W 075°31'0 0.0
2018-Jan-19 23:00N 39°43' W 075°31'0 0.0
2018-Jan-19 22:30N 39°43' W 075°31'0 0.0
2018-Jan-19 22:00N 39°43' W 075°31'1 1.2
2018-Jan-19 21:31N 39°43' W 075°31'0 0.0
2018-Jan-19 21:00N 39°43' W 075°31'1 1.3
2018-Jan-19 20:30N 39°43' W 075°30'5 9.6
2018-Jan-19 20:00N 39°47' W 075°27'4 9.0
2018-Jan-19 19:30N 39°50' W 075°22'4 8.0
2018-Jan-19 19:01N 39°51' W 075°17'4 8.1
2018-Jan-19 18:30N 39°53' W 075°12'1 1.9
2018-Jan-19 18:00N 39°53' W 075°12'3 5.4
2018-Jan-19 17:30N 39°51' W 075°14'0 0.3
2018-Jan-19 17:00N 39°51' W 075°14'2 5.0
2018-Jan-19 16:31N 39°54' W 075°12'0 0.2
2018-Jan-19 16:01N 39°54' W 075°12'3 5.8
2018-Jan-19 15:30N 39°53' W 075°09'4 7.9
2018-Jan-19 15:01N 39°57' W 075°08'3 6.9
2018-Jan-19 14:31N 39°59' W 075°04'3 5.8
2018-Jan-19 14:00N 39°58' W 075°08'4 8.1
2018-Jan-19 13:31N 39°54' W 075°08'3 6.5
2018-Jan-19 13:00N 39°54' W 075°12'1 1.4
2018-Jan-19 12:30N 39°54' W 075°12'0 0.0
2018-Jan-19 12:01N 39°54' W 075°12'0 0.0
2018-Jan-19 11:31N 39°54' W 075°12'0 0.0
2018-Jan-19 11:00N 39°54' W 075°12'0 0.0
2018-Jan-19 10:30N 39°54' W 075°12'0 0.0
2018-Jan-19 10:00N 39°54' W 075°12'0 0.0
2018-Jan-19 09:30N 39°54' W 075°12'0 0.3
2018-Jan-19 09:01N 39°53' W 075°12'2 4.4
2018-Jan-19 08:30N 39°53' W 075°09'2 4.4
2018-Jan-19 08:00N 39°55' W 075°08'0 0.0
2018-Jan-19 07:30N 39°55' W 075°08'0 0.0
2018-Jan-19 07:01N 39°55' W 075°08'0 0.0
2018-Jan-19 06:30N 39°55' W 075°08'0 0.0
2018-Jan-19 06:01N 39°55' W 075°08'0 0.0
2018-Jan-19 05:31N 39°55' W 075°08'0 0.1
2018-Jan-19 05:01N 39°55' W 075°08'3 6.3
2018-Jan-19 04:31N 39°53' W 075°11'1 1.8
2018-Jan-19 04:00N 39°53' W 075°12'1 1.0
2018-Jan-19 03:30N 39°53' W 075°12'3 6.9
2018-Jan-19 03:00N 39°55' W 075°08'4 8.4
2018-Jan-19 02:30N 39°59' W 075°05'1 1.7
2018-Jan-19 02:00N 39°59' W 075°04'0 0.3
2018-Jan-19 01:30N 39°59' W 075°04'3 6.6
2018-Jan-19 01:00N 39°57' W 075°08'4 7.3
2018-Jan-19 00:30N 39°53' W 075°08'3 5.5
2018-Jan-19 00:00N 39°53' W 075°12'1 1.3
2018-Jan-18 23:30N 39°54' W 075°12'0 0.1
2018-Jan-18 23:00N 39°54' W 075°12'0 0.0
2018-Jan-18 22:30N 39°54' W 075°12'0 0.0
2018-Jan-18 22:00N 39°54' W 075°12'0 0.0
2018-Jan-18 21:30N 39°54' W 075°12'0 0.0
2018-Jan-18 21:00N 39°54' W 075°12'0 0.0
2018-Jan-18 20:07N 39°54' W 075°12'0 0.1
2018-Jan-18 20:00N 39°54' W 075°12'0 0.0
2018-Jan-18 19:31N 39°54' W 075°12'2 3.5
2018-Jan-18 19:01N 39°52' W 075°13'1 1.8
2018-Jan-18 18:30N 39°51' W 075°14'0 0.6
2018-Jan-18 18:01N 39°52' W 075°14'2 4.7
2018-Jan-18 17:30N 39°54' W 075°12'0 0.6
2018-Jan-18 17:01N 39°54' W 075°12'0 0.2
2018-Jan-18 16:31N 39°54' W 075°12'0 0.0
2018-Jan-18 16:01N 39°54' W 075°12'1 1.5
2018-Jan-18 15:30N 39°53' W 075°12'5 9.8
2018-Jan-18 15:01N 39°51' W 075°17'510.4
2018-Jan-18 14:31N 39°49' W 075°24'0 0.8
2018-Jan-18 14:00N 39°48' W 075°24'0 0.3
2018-Jan-18 13:30N 39°48' W 075°24'0 0.0
2018-Jan-18 13:00N 39°48' W 075°24'0 0.0
2018-Jan-18 12:30N 39°48' W 075°24'0 0.0
2018-Jan-18 12:01N 39°48' W 075°24'0 0.0
2018-Jan-18 11:30N 39°48' W 075°24'0 0.0
2018-Jan-18 11:00N 39°48' W 075°24'0 0.0
2018-Jan-18 10:30N 39°48' W 075°24'0 0.0
2018-Jan-18 10:00N 39°48' W 075°24'0 0.0
2018-Jan-18 09:30N 39°48' W 075°24'0 0.0
2018-Jan-18 09:00N 39°48' W 075°24'0 0.0
2018-Jan-18 08:30N 39°48' W 075°24'0 0.1
2018-Jan-18 08:01N 39°48' W 075°24'0 0.1
2018-Jan-18 07:30N 39°48' W 075°24'0 0.1
2018-Jan-18 07:01N 39°49' W 075°24'1 1.7
2018-Jan-18 06:30N 39°49' W 075°23'4 7.0
2018-Jan-18 06:00N 39°51' W 075°19'4 8.0
2018-Jan-18 05:31N 39°51' W 075°14'3 5.4
2018-Jan-18 05:01N 39°54' W 075°13'1 1.2
2018-Jan-18 04:31N 39°55' W 075°13'0 0.0
2018-Jan-18 04:01N 39°55' W 075°13'0 0.0
2018-Jan-18 03:30N 39°55' W 075°13'0 0.0
2018-Jan-18 03:00N 39°55' W 075°13'0 0.0
2018-Jan-18 02:31N 39°55' W 075°13'0 0.0
2018-Jan-18 02:00N 39°55' W 075°13'0 0.0
2018-Jan-18 01:31N 39°55' W 075°13'0 0.0
2018-Jan-18 01:01N 39°55' W 075°13'0 0.0
2018-Jan-18 00:00N 39°55' W 075°13'0 0.0
2018-Jan-17 23:58N 39°55' W 075°13'  
2018-Jan-12 14:59N 40°37' W 074°12'3 6.0
2018-Jan-12 14:29N 40°39' W 074°09'3 7.2
2018-Jan-12 14:01N 40°39' W 074°04'3 5.3
2018-Jan-12 13:31N 40°40' W 074°01'0 1.0
2018-Jan-12 13:00N 40°40' W 074°00'0 0.1
2018-Jan-12 12:30N 40°40' W 074°00'1 2.9
2018-Jan-12 12:01N 40°39' W 074°02'2 3.9
2018-Jan-12 11:31N 40°40' W 074°04'0 0.0
2018-Jan-12 11:00N 40°40' W 074°04'0 0.0
2018-Jan-12 10:31N 40°40' W 074°04'0 0.0
2018-Jan-12 10:01N 40°40' W 074°04'0 0.0
2018-Jan-12 09:31N 40°40' W 074°04'0 0.0
2018-Jan-12 09:01N 40°40' W 074°04'0 0.0
2018-Jan-12 08:31N 40°40' W 074°04'0 0.0
2018-Jan-12 08:01N 40°40' W 074°04'0 0.0
2018-Jan-12 07:31N 40°40' W 074°04'0 0.0
2018-Jan-12 07:00N 40°40' W 074°04'0 0.0
2018-Jan-12 06:30N 40°40' W 074°04'0 0.0
2018-Jan-12 06:00N 40°40' W 074°04'0 0.0
2018-Jan-12 05:30N 40°40' W 074°04'0 0.0
2018-Jan-12 05:00N 40°40' W 074°04'1 2.2
2018-Jan-12 04:31N 40°40' W 074°03'0 0.2
2018-Jan-12 04:00N 40°40' W 074°03'2 4.1
2018-Jan-12 03:31N 40°39' W 074°05'1 2.3
2018-Jan-12 03:00N 40°39' W 074°07'0 0.0
2018-Jan-12 02:30N 40°39' W 074°07'0 0.0
2018-Jan-12 01:03N 40°39' W 074°07'1 7.0
2018-Jan-12 00:58N 40°39' W 074°06'1 1.5
2018-Jan-12 00:30N 40°39' W 074°05'1 1.5
2018-Jan-11 23:40N 40°39' W 074°07'1 6.0
2018-Jan-11 23:30N 40°39' W 074°05'3 5.2
2018-Jan-11 23:00N 40°40' W 074°02'1 2.9
2018-Jan-11 22:30N 40°41' W 074°01'0 0.0
2018-Jan-11 22:01N 40°41' W 074°01'3 5.1
2018-Jan-11 21:30N 40°40' W 074°03'2 4.3
2018-Jan-11 21:00N 40°39' W 074°06'3 1.2
2018-Jan-11 18:32N 40°39' W 074°10'1 5.5
2018-Jan-11 18:22N 40°39' W 074°09'2 6.5
2018-Jan-11 18:00N 40°39' W 074°06'3 6.5
2018-Jan-11 17:30N 40°39' W 074°01'1 1.3
2018-Jan-11 17:00N 40°40' W 074°01'0 0.7
2018-Jan-11 16:30N 40°40' W 074°00'0 0.0
2018-Jan-11 16:00N 40°40' W 074°00'0 0.0
2018-Jan-11 15:30N 40°40' W 074°00'0 0.0
2018-Jan-11 15:00N 40°40' W 074°00'0 0.0
2018-Jan-11 14:30N 40°40' W 074°00'0 0.0
2018-Jan-11 13:57N 40°40' W 074°00'0 0.1
2018-Jan-11 13:30N 40°40' W 074°01'0 0.1
2018-Jan-11 13:00N 40°40' W 074°00'0 0.0
2018-Jan-11 12:30N 40°40' W 074°00'0 0.0
2018-Jan-11 12:00N 40°40' W 074°00'0 0.0
2018-Jan-11 11:30N 40°40' W 074°00'0 0.0
2018-Jan-11 11:00N 40°40' W 074°00'0 0.0
2018-Jan-11 10:30N 40°40' W 074°00'0 0.0
2018-Jan-11 09:57N 40°40' W 074°00'0 0.0
2018-Jan-11 09:30N 40°40' W 074°00'0 0.0
2018-Jan-11 08:57N 40°40' W 074°00'0 0.0
2018-Jan-11 08:30N 40°40' W 074°00'0 0.0
2018-Jan-11 08:00N 40°40' W 074°00'0 0.0
2018-Jan-11 07:30N 40°40' W 074°00'0 0.0
2018-Jan-11 07:00N 40°40' W 074°00'0 0.0
2018-Jan-11 06:30N 40°40' W 074°00'0 0.5
2018-Jan-11 06:01N 40°40' W 074°00'1 1.6
2018-Jan-11 05:31N 40°40' W 074°01'2 3.2
2018-Jan-11 05:01N 40°41' W 074°00'2 3.4
2018-Jan-11 04:31N 40°40' W 074°01'0 1.0
2018-Jan-11 04:01N 40°40' W 074°01'3 5.0
2018-Jan-11 03:30N 40°40' W 074°04'1 1.4
2018-Jan-11 02:57N 40°40' W 074°05'0 0.4
2018-Jan-11 02:31N 40°40' W 074°05'0 0.0
2018-Jan-11 02:01N 40°40' W 074°05'0 0.0
2018-Jan-11 01:31N 40°40' W 074°05'0 0.0
2018-Jan-11 01:01N 40°40' W 074°05'0 0.0
2018-Jan-11 00:31N 40°40' W 074°05'0 0.0
2018-Jan-11 00:01N 40°40' W 074°05'0 0.0
2018-Jan-10 23:31N 40°40' W 074°05'0 0.0
2018-Jan-10 23:01N 40°40' W 074°05'0 0.0
2018-Jan-10 22:30N 40°40' W 074°05'0 0.0
2018-Jan-10 22:01N 40°40' W 074°05'2 3.6
2018-Jan-10 21:31N 40°39' W 074°03'1 1.5
2018-Jan-10 21:01N 40°38' W 074°03'2 3.8
2018-Jan-10 20:30N 40°40' W 074°01'1 1.1
2018-Jan-10 20:01N 40°40' W 074°00'0 0.0
2018-Jan-10 19:31N 40°40' W 074°00'0 0.0
2018-Jan-10 19:01N 40°40' W 074°00'0 0.0
2018-Jan-10 18:31N 40°40' W 074°00'0 0.1
2018-Jan-10 18:01N 40°40' W 074°00'0 0.3
2018-Jan-10 17:31N 40°40' W 074°01'0 0.4
2018-Jan-10 17:00N 40°40' W 074°00'0 0.1
2018-Jan-10 16:31N 40°40' W 074°00'0 0.0
2018-Jan-10 16:00N 40°40' W 074°00'0 0.0
2018-Jan-10 15:30N 40°40' W 074°00'0 0.0
2018-Jan-10 15:01N 40°40' W 074°00'  

Dump ship's entire track history